createdAt,value
2019-05-11T00:03:58.282Z,87.07
2019-05-11T00:09:05.538Z,87.50
2019-05-11T00:14:11.370Z,86.97
2019-05-11T00:19:16.806Z,85.67
2019-05-11T00:24:21.966Z,84.96
2019-05-11T00:29:27.745Z,86.02
2019-05-11T00:34:32.770Z,86.72
2019-05-11T00:39:38.217Z,87.03
2019-05-11T00:44:47.045Z,85.78
2019-05-11T00:49:50.205Z,86.00
2019-05-11T00:54:56.058Z,85.99
2019-05-11T01:00:01.263Z,84.45
2019-05-11T01:05:06.773Z,84.36
2019-05-11T01:10:23.561Z,86.54
2019-05-11T01:15:20.140Z,86.24
2019-05-11T01:20:25.412Z,86.56
2019-05-11T01:25:31.302Z,87.17
2019-05-11T01:30:38.787Z,87.41
2019-05-11T01:35:43.583Z,87.97
2019-05-11T01:40:58.328Z,88.53
2019-05-11T01:45:55.957Z,87.92
2019-05-11T01:51:01.498Z,87.87
2019-05-11T01:56:06.973Z,87.76
2019-05-11T02:01:12.812Z,86.87
2019-05-11T02:06:17.927Z,86.49
2019-05-11T02:11:23.167Z,86.94
2019-05-11T02:16:28.232Z,86.19
2019-05-11T02:21:33.764Z,86.53
2019-05-11T02:26:38.919Z,86.03
2019-05-11T02:31:44.486Z,86.78
2019-05-11T02:36:49.637Z,86.65
2019-05-11T02:41:54.719Z,86.33
2019-05-11T02:47:00.147Z,86.54
2019-05-11T02:52:05.929Z,86.57
2019-05-11T02:57:10.987Z,86.25
2019-05-11T03:02:16.406Z,86.50
2019-05-11T03:07:21.931Z,86.34
2019-05-11T03:12:26.976Z,86.57
2019-05-11T03:17:34.143Z,86.00
2019-05-11T03:22:39.595Z,86.50
2019-05-11T03:27:44.795Z,86.60
2019-05-11T03:32:50.217Z,86.63
2019-05-11T03:37:55.679Z,86.12
2019-05-11T03:43:00.843Z,86.69
2019-05-11T03:48:06.290Z,87.11
2019-05-11T03:53:11.453Z,86.59
2019-05-11T03:58:16.899Z,86.74
2019-05-11T04:03:22.579Z,87.78
2019-05-11T04:08:27.654Z,86.91
2019-05-11T04:13:33.090Z,86.74
2019-05-11T04:18:38.239Z,87.34
2019-05-11T04:23:43.665Z,87.53
2019-05-11T04:28:49.365Z,87.68
2019-05-11T04:33:55.030Z,88.44
2019-05-11T04:39:00.108Z,88.02
2019-05-11T04:44:05.432Z,88.16
2019-05-11T04:49:10.577Z,87.15
2019-05-11T04:54:15.992Z,86.95
2019-05-11T04:59:21.410Z,87.49
2019-05-11T05:04:26.577Z,86.52
2019-05-11T05:09:36.157Z,87.61
2019-05-11T05:14:38.619Z,86.50
2019-05-11T05:19:44.054Z,86.52
2019-05-11T05:24:49.174Z,85.97
2019-05-11T05:29:54.893Z,85.97
2019-05-11T05:35:00.402Z,86.79
2019-05-11T05:40:06.170Z,85.88
2019-05-11T05:45:11.793Z,86.12
2019-05-11T05:50:17.412Z,86.35
2019-05-11T05:55:22.912Z,86.00
2019-05-11T06:00:28.126Z,85.94
2019-05-11T06:05:33.211Z,85.21
2019-05-11T06:10:38.279Z,83.44
2019-05-11T06:15:44.042Z,81.56
2019-05-11T06:20:49.500Z,80.97
2019-05-11T06:25:54.873Z,77.29
2019-05-11T06:31:00.295Z,77.20
2019-05-11T06:36:05.527Z,75.00
2019-05-11T06:41:10.732Z,75.75
2019-05-11T06:46:16.499Z,75.74
2019-05-11T06:51:22.411Z,77.94
2019-05-11T06:56:27.803Z,76.70
2019-05-11T07:01:32.991Z,77.52
2019-05-11T07:06:38.321Z,77.05
2019-05-11T07:11:43.674Z,76.92
2019-05-11T07:16:48.896Z,75.72
2019-05-11T07:21:54.625Z,73.39
2019-05-11T07:26:59.766Z,74.13
2019-05-11T07:32:14.960Z,73.76
2019-05-11T07:37:12.388Z,74.03
2019-05-11T07:42:18.164Z,71.62
2019-05-11T07:47:23.446Z,71.35
2019-05-11T07:52:29.023Z,69.47
2019-05-11T07:57:34.558Z,69.04
2019-05-11T08:02:39.839Z,69.70
2019-05-11T08:07:44.938Z,69.32
2019-05-11T08:12:49.935Z,66.46
2019-05-11T08:17:57.839Z,67.10
2019-05-11T08:23:03.325Z,64.92
2019-05-11T08:28:11.849Z,64.32
2019-05-11T08:33:17.810Z,66.95
2019-05-11T08:38:22.774Z,63.41
2019-05-11T08:43:28.636Z,62.47
2019-05-11T08:48:34.118Z,61.33
2019-05-11T08:53:39.745Z,61.34
2019-05-11T08:58:45.728Z,59.80
2019-05-11T09:03:51.182Z,57.55
2019-05-11T09:08:58.361Z,54.14
2019-05-11T09:14:03.310Z,55.66
2019-05-11T09:19:08.944Z,53.31
2019-05-11T09:24:14.179Z,52.48
2019-05-11T09:29:20.233Z,51.85
2019-05-11T09:34:25.586Z,51.30
2019-05-11T09:39:31.276Z,50.56
2019-05-11T09:44:37.963Z,50.97
2019-05-11T09:49:47.785Z,52.78
2019-05-11T09:54:50.471Z,51.83
2019-05-11T09:59:58.114Z,50.25
2019-05-11T10:05:02.537Z,51.05
2019-05-11T10:10:09.381Z,52.98
2019-05-11T10:15:18.597Z,50.75
2019-05-11T10:20:23.359Z,52.85
2019-05-11T10:25:29.153Z,50.97
2019-05-11T10:30:34.288Z,52.35
2019-05-11T10:35:39.718Z,53.34
2019-05-11T10:40:47.842Z,54.54
2019-05-11T10:45:52.550Z,57.36
2019-05-11T10:50:57.750Z,59.24
2019-05-11T10:56:02.874Z,56.66
2019-05-11T11:01:08.854Z,56.39
2019-05-11T11:06:14.066Z,54.20
2019-05-11T11:11:19.507Z,54.38
2019-05-11T11:16:35.663Z,55.48
2019-05-11T11:21:31.639Z,54.76
2019-05-11T11:26:38.072Z,53.72
2019-05-11T11:31:43.832Z,52.40
2019-05-11T11:36:48.881Z,52.32
2019-05-11T11:41:54.315Z,52.96
2019-05-11T11:46:59.941Z,52.28
2019-05-11T11:52:05.579Z,51.26
2019-05-11T11:57:10.640Z,51.09
2019-05-11T12:02:15.738Z,51.47
2019-05-11T12:07:21.416Z,50.15
2019-05-11T12:12:27.922Z,51.82
2019-05-11T12:17:33.127Z,50.20
2019-05-11T12:22:38.759Z,50.86
2019-05-11T12:27:44.037Z,49.71
2019-05-11T12:32:50.303Z,50.68
2019-05-11T12:37:55.291Z,49.88
2019-05-11T12:43:00.340Z,48.87
2019-05-11T12:48:05.537Z,50.84
2019-05-11T12:53:10.669Z,50.18
2019-05-11T12:58:18.148Z,48.60
2019-05-11T13:03:23.027Z,51.72
2019-05-11T13:08:28.463Z,51.00
2019-05-11T13:13:33.699Z,51.79
2019-05-11T13:18:39.195Z,50.11
2019-05-11T13:23:44.776Z,51.17
2019-05-11T13:28:50.114Z,50.27
2019-05-11T13:33:58.359Z,50.70
2019-05-11T13:39:03.495Z,53.13
2019-05-11T13:44:09.475Z,53.70
2019-05-11T13:49:14.802Z,54.85
2019-05-11T13:54:20.158Z,55.44
2019-05-11T13:59:27.849Z,55.34
2019-05-11T14:04:33.090Z,54.37
2019-05-11T14:09:38.725Z,55.24
2019-05-11T14:14:44.074Z,56.72
2019-05-11T14:19:49.541Z,55.09
2019-05-11T14:24:55.406Z,54.89
2019-05-11T14:30:04.072Z,54.41
2019-05-11T14:35:11.971Z,54.09
2019-05-11T14:40:15.037Z,54.29
2019-05-11T14:45:20.165Z,56.05
2019-05-11T14:50:27.967Z,55.16
2019-05-11T14:55:32.727Z,53.82
2019-05-11T15:00:39.223Z,54.27
2019-05-11T15:05:44.608Z,55.45
2019-05-11T15:10:50.391Z,60.41
2019-05-11T15:15:55.867Z,59.55
2019-05-11T15:21:01.317Z,61.36
2019-05-11T15:26:09.969Z,63.54
2019-05-11T15:31:14.078Z,64.93
2019-05-11T15:36:19.559Z,64.61
2019-05-11T15:41:24.964Z,62.62
2019-05-11T15:46:30.682Z,64.02
2019-05-11T15:51:38.343Z,65.67
2019-05-11T15:56:42.611Z,67.02
2019-05-11T16:01:48.919Z,59.33
2019-05-11T16:06:54.502Z,68.17
2019-05-11T16:11:59.592Z,72.47
2019-05-11T16:17:04.964Z,74.89
2019-05-11T16:22:10.835Z,73.97
2019-05-11T16:27:18.313Z,73.78
2019-05-11T16:32:23.704Z,76.98
2019-05-11T16:37:29.063Z,77.21
2019-05-11T16:42:34.566Z,77.29
2019-05-11T16:47:39.799Z,78.73
2019-05-11T16:52:47.899Z,77.43
2019-05-11T16:57:52.327Z,79.52
2019-05-11T17:02:57.836Z,78.90
2019-05-11T17:08:03.367Z,79.37
2019-05-11T17:13:09.126Z,78.62
2019-05-11T17:18:14.203Z,78.66
2019-05-11T17:23:19.428Z,79.01
2019-05-11T17:28:24.774Z,80.63
2019-05-11T17:33:29.899Z,79.31
2019-05-11T17:38:34.926Z,80.06
2019-05-11T17:43:40.258Z,78.83
2019-05-11T17:48:45.447Z,79.81
2019-05-11T17:53:50.591Z,80.27
2019-05-11T17:58:58.353Z,82.25
2019-05-11T18:04:03.108Z,82.30
2019-05-11T18:09:08.892Z,80.34
2019-05-11T18:14:13.953Z,82.50
2019-05-11T18:19:19.237Z,81.33
2019-05-11T18:24:24.635Z,81.79
2019-05-11T18:29:30.431Z,82.65
2019-05-11T18:34:37.718Z,81.87
2019-05-11T18:39:43.234Z,81.55
2019-05-11T18:44:48.599Z,82.23
2019-05-11T18:49:53.751Z,81.08
2019-05-11T18:54:59.962Z,80.73
2019-05-11T19:00:08.121Z,80.96
2019-05-11T19:05:13.546Z,83.03
2019-05-11T19:10:18.941Z,82.86
2019-05-11T19:15:24.284Z,81.67
2019-05-11T19:20:44.287Z,84.11
2019-05-11T19:25:37.536Z,81.66
2019-05-11T19:30:43.066Z,81.66
2019-05-11T19:35:48.659Z,81.63
2019-05-11T19:40:54.161Z,81.35
2019-05-11T19:46:00.544Z,81.32
2019-05-11T19:51:09.109Z,81.21
2019-05-11T19:56:13.323Z,81.52
2019-05-11T20:01:19.063Z,81.09
2019-05-11T20:06:24.568Z,81.69
2019-05-11T20:11:30.093Z,81.86
2019-05-11T20:16:36.330Z,82.55
2019-05-11T20:21:41.723Z,82.52
2019-05-11T20:26:46.795Z,81.14
2019-05-11T20:31:52.544Z,81.99
2019-05-11T20:36:58.656Z,81.99
2019-05-11T20:42:04.389Z,82.60
2019-05-11T20:47:09.854Z,82.19
2019-05-11T20:52:17.681Z,82.03
2019-05-11T20:57:22.228Z,81.64
2019-05-11T21:02:28.878Z,82.01
2019-05-11T21:07:34.230Z,83.24
2019-05-11T21:12:39.961Z,84.06
2019-05-11T21:17:45.480Z,83.72
2019-05-11T21:22:51.255Z,83.64
2019-05-11T21:27:57.905Z,84.16
2019-05-11T21:33:04.013Z,83.25
2019-05-11T21:38:09.587Z,82.08
2019-05-11T21:43:15.397Z,82.03
2019-05-11T21:48:23.133Z,82.43
2019-05-11T21:53:28.870Z,81.96
2019-05-11T21:58:34.491Z,82.12
2019-05-11T22:03:39.866Z,82.24
2019-05-11T22:08:50.563Z,80.50
2019-05-11T22:13:52.718Z,80.46
2019-05-11T22:18:58.278Z,81.53
2019-05-11T22:24:04.052Z,81.23
2019-05-11T22:29:09.302Z,81.28
2019-05-11T22:34:14.290Z,82.02
2019-05-11T22:39:20.823Z,81.34
2019-05-11T22:44:27.884Z,82.08
2019-05-11T22:49:33.328Z,81.23
2019-05-11T22:54:38.968Z,81.25
2019-05-11T22:59:44.542Z,81.29
2019-05-11T23:04:49.892Z,80.55
2019-05-11T23:09:55.249Z,81.90
2019-05-11T23:15:12.793Z,80.52
2019-05-11T23:20:18.374Z,81.05
2019-05-11T23:25:23.449Z,81.19
2019-05-11T23:30:28.863Z,81.07
2019-05-11T23:35:34.681Z,81.51
2019-05-11T23:40:40.090Z,80.87
2019-05-11T23:45:45.489Z,80.79
2019-05-11T23:50:50.913Z,80.76
2019-05-11T23:55:57.960Z,81.73
